Terminal Aerodrome Forecast
Issued by NWS Sterling, VA

Current Version | Previous Version | Graphics & Text | Print | Product List | Glossary Off
Versions: 1 2 3 4 5 6 7 8 9 10 11 12 13 14 15 16 17 18 19 20 21 22 23 24 25 26 27 28 29 30 31

000
FTUS41 KLWX 060211 AAA
TAFIAD
TAF AMD
KIAD 060211Z 0602/0706 16006KT P6SM SCT020 BKN050
     FM060300 VRB04KT 3SM -SHRA BKN025
     FM060900 11006KT 3SM -SHRA BKN008
     FM061300 12006KT P6SM -SHRA SCT008 OVC045
     FM061900 13009KT P6SM -SHRA BKN035
     FM070000 13005KT P6SM -SHRA BKN050
     FM070100 14004KT P6SM BKN050=

USA.gov is the U.S. government's official web portal to all federal, state and local government web resources and services.